sensor_id;sensor_type;location;lat;lon;timestamp;pressure;altitude;pressure_sealevel;temperature;humidity
52591;BME280;38483;42.620;25.394;2023-03-08T00:00:41;96241.25;;;6.44;72.12
52591;BME280;38483;42.620;25.394;2023-03-08T00:03:12;96250.72;;;6.24;73.78
52591;BME280;38483;42.620;25.394;2023-03-08T00:05:41;96255.44;;;6.13;73.88
52591;BME280;38483;42.620;25.394;2023-03-08T00:08:08;96259.28;;;6.03;75.13
52591;BME280;38483;42.620;25.394;2023-03-08T00:10:35;96252.78;;;5.94;75.39
52591;BME280;38483;42.620;25.394;2023-03-08T00:13:02;96262.72;;;6.03;75.43
52591;BME280;38483;42.620;25.394;2023-03-08T00:15:29;96263.59;;;6.22;74.50
52591;BME280;38483;42.620;25.394;2023-03-08T00:17:56;96262.59;;;6.26;73.45
52591;BME280;38483;42.620;25.394;2023-03-08T00:20:23;96260.03;;;6.26;74.70
52591;BME280;38483;42.620;25.394;2023-03-08T00:22:50;96253.81;;;5.90;75.04
52591;BME280;38483;42.620;25.394;2023-03-08T00:25:38;96249.03;;;5.81;75.37
52591;BME280;38483;42.620;25.394;2023-03-08T00:28:05;96248.84;;;5.64;75.63
52591;BME280;38483;42.620;25.394;2023-03-08T00:30:32;96253.53;;;5.53;76.63
52591;BME280;38483;42.620;25.394;2023-03-08T00:36:23;96253.31;;;5.59;77.79
52591;BME280;38483;42.620;25.394;2023-03-08T00:38:50;96262.56;;;5.63;78.07
52591;BME280;38483;42.620;25.394;2023-03-08T00:42:14;96254.59;;;5.70;77.33
52591;BME280;38483;42.620;25.394;2023-03-08T00:45:36;96240.25;;;5.87;76.59
52591;BME280;38483;42.620;25.394;2023-03-08T00:48:58;96239.50;;;6.05;75.46
52591;BME280;38483;42.620;25.394;2023-03-08T00:51:44;96234.78;;;6.16;74.25
52591;BME280;38483;42.620;25.394;2023-03-08T00:54:29;96230.31;;;6.39;73.88
52591;BME280;38483;42.620;25.394;2023-03-08T00:57:15;96222.94;;;6.32;74.13
52591;BME280;38483;42.620;25.394;2023-03-08T01:00:01;96230.78;;;6.29;73.64
52591;BME280;38483;42.620;25.394;2023-03-08T01:02:47;96219.91;;;6.22;73.57
52591;BME280;38483;42.620;25.394;2023-03-08T01:05:33;96232.91;;;6.19;73.19
52591;BME280;38483;42.620;25.394;2023-03-08T01:08:21;96226.28;;;6.34;72.96
52591;BME280;38483;42.620;25.394;2023-03-08T01:10:54;96230.63;;;6.52;72.42
52591;BME280;38483;42.620;25.394;2023-03-08T01:13:40;96228.41;;;6.44;72.21
52591;BME280;38483;42.620;25.394;2023-03-08T01:16:14;96230.91;;;6.46;72.36
52591;BME280;38483;42.620;25.394;2023-03-08T01:19:03;96213.94;;;6.42;72.60
52591;BME280;38483;42.620;25.394;2023-03-08T01:21:31;96223.88;;;6.49;71.84
52591;BME280;38483;42.620;25.394;2023-03-08T01:24:16;96226.72;;;6.43;72.31
52591;BME280;38483;42.620;25.394;2023-03-08T01:26:43;96217.41;;;6.41;71.86
52591;BME280;38483;42.620;25.394;2023-03-08T01:29:10;96229.78;;;6.51;72.17
52591;BME280;38483;42.620;25.394;2023-03-08T01:31:57;96218.91;;;6.26;72.69
52591;BME280;38483;42.620;25.394;2023-03-08T01:34:24;96221.34;;;6.29;73.08
52591;BME280;38483;42.620;25.394;2023-03-08T01:37:10;96222.22;;;6.08;72.39
52591;BME280;38483;42.620;25.394;2023-03-08T01:39:57;96221.34;;;5.88;72.90
52591;BME280;38483;42.620;25.394;2023-03-08T01:42:42;96229.91;;;5.66;74.10
52591;BME280;38483;42.620;25.394;2023-03-08T01:48:40;96228.16;;;5.24;76.14
52591;BME280;38483;42.620;25.394;2023-03-08T01:51:19;96226.97;;;5.11;77.06
52591;BME280;38483;42.620;25.394;2023-03-08T01:53:48;96214.22;;;4.86;77.95
52591;BME280;38483;42.620;25.394;2023-03-08T01:56:16;96231.25;;;4.87;79.20
52591;BME280;38483;42.620;25.394;2023-03-08T01:58:46;96227.19;;;4.81;78.98
52591;BME280;38483;42.620;25.394;2023-03-08T02:01:14;96209.34;;;4.78;78.82
52591;BME280;38483;42.620;25.394;2023-03-08T02:03:43;96220.66;;;4.96;78.69
52591;BME280;38483;42.620;25.394;2023-03-08T02:06:13;96221.84;;;4.87;79.14
52591;BME280;38483;42.620;25.394;2023-03-08T02:08:41;96220.59;;;4.97;78.64
52591;BME280;38483;42.620;25.394;2023-03-08T02:11:11;96233.31;;;5.01;79.27
52591;BME280;38483;42.620;25.394;2023-03-08T02:13:40;96219.88;;;4.94;79.39
52591;BME280;38483;42.620;25.394;2023-03-08T02:16:12;96237.69;;;4.99;78.84
52591;BME280;38483;42.620;25.394;2023-03-08T02:18:58;96233.19;;;4.80;79.02
52591;BME280;38483;42.620;25.394;2023-03-08T02:21:27;96233.00;;;4.62;79.96
52591;BME280;38483;42.620;25.394;2023-03-08T02:24:04;96236.28;;;4.42;80.16
52591;BME280;38483;42.620;25.394;2023-03-08T02:26:35;96216.66;;;4.18;80.62
52591;BME280;38483;42.620;25.394;2023-03-08T02:29:05;96232.69;;;4.23;80.62
52591;BME280;38483;42.620;25.394;2023-03-08T02:31:36;96232.00;;;4.18;81.10
52591;BME280;38483;42.620;25.394;2023-03-08T02:34:03;96233.78;;;4.16;81.39
52591;BME280;38483;42.620;25.394;2023-03-08T02:37:06;96216.66;;;4.17;80.47
52591;BME280;38483;42.620;25.394;2023-03-08T02:46:37;96237.06;;;4.44;80.62
52591;BME280;38483;42.620;25.394;2023-03-08T02:56:07;96242.97;;;4.71;80.26
52591;BME280;38483;42.620;25.394;2023-03-08T02:59:12;96237.13;;;4.67;80.05
52591;BME280;38483;42.620;25.394;2023-03-08T03:01:42;96241.09;;;4.76;79.98
52591;BME280;38483;42.620;25.394;2023-03-08T03:04:32;96244.63;;;4.72;79.88
52591;BME280;38483;42.620;25.394;2023-03-08T03:09:45;96244.44;;;4.78;79.93
52591;BME280;38483;42.620;25.394;2023-03-08T03:15:38;96249.50;;;5.03;78.96
52591;BME280;38483;42.620;25.394;2023-03-08T03:18:25;96256.06;;;5.10;78.23
52591;BME280;38483;42.620;25.394;2023-03-08T03:21:31;96259.78;;;5.24;78.11
52591;BME280;38483;42.620;25.394;2023-03-08T03:24:53;96259.28;;;5.38;76.82
52591;BME280;38483;42.620;25.394;2023-03-08T03:27:58;96244.59;;;5.41;76.58
52591;BME280;38483;42.620;25.394;2023-03-08T03:30:45;96256.00;;;5.56;75.97
52591;BME280;38483;42.620;25.394;2023-03-08T03:33:14;96269.66;;;5.56;75.72
52591;BME280;38483;42.620;25.394;2023-03-08T03:35:43;96258.03;;;5.48;75.96
52591;BME280;38483;42.620;25.394;2023-03-08T03:38:14;96268.94;;;5.53;75.33
52591;BME280;38483;42.620;25.394;2023-03-08T03:40:43;96264.97;;;5.46;75.08
52591;BME280;38483;42.620;25.394;2023-03-08T03:43:10;96269.44;;;5.18;75.86
52591;BME280;38483;42.620;25.394;2023-03-08T03:45:37;96275.97;;;5.03;76.10
52591;BME280;38483;42.620;25.394;2023-03-08T03:48:05;96277.47;;;4.85;76.88
52591;BME280;38483;42.620;25.394;2023-03-08T03:50:33;96265.31;;;4.67;77.80
52591;BME280;38483;42.620;25.394;2023-03-08T03:53:06;96283.50;;;4.84;77.96
52591;BME280;38483;42.620;25.394;2023-03-08T03:55:34;96291.28;;;5.06;76.86
52591;BME280;38483;42.620;25.394;2023-03-08T03:58:02;96276.44;;;4.66;77.67
52591;BME280;38483;42.620;25.394;2023-03-08T04:00:30;96293.41;;;4.46;78.38
52591;BME280;38483;42.620;25.394;2023-03-08T04:03:09;96269.66;;;4.16;79.57
52591;BME280;38483;42.620;25.394;2023-03-08T04:05:37;96276.91;;;4.03;80.67
52591;BME280;38483;42.620;25.394;2023-03-08T04:08:06;96293.88;;;4.06;80.47
52591;BME280;38483;42.620;25.394;2023-03-08T04:10:36;96292.22;;;4.05;81.11
52591;BME280;38483;42.620;25.394;2023-03-08T04:13:04;96298.47;;;3.96;81.90
52591;BME280;38483;42.620;25.394;2023-03-08T04:15:31;96302.72;;;3.97;81.31
52591;BME280;38483;42.620;25.394;2023-03-08T04:18:01;96286.25;;;3.78;81.61
52591;BME280;38483;42.620;25.394;2023-03-08T04:20:31;96291.31;;;3.80;82.27
52591;BME280;38483;42.620;25.394;2023-03-08T04:22:59;96284.63;;;3.76;82.21
52591;BME280;38483;42.620;25.394;2023-03-08T04:25:35;96291.69;;;3.68;82.46
52591;BME280;38483;42.620;25.394;2023-03-08T04:28:04;96274.81;;;3.62;82.21
52591;BME280;38483;42.620;25.394;2023-03-08T04:30:32;96294.00;;;3.77;82.59
52591;BME280;38483;42.620;25.394;2023-03-08T04:33:01;96294.78;;;3.79;82.37
52591;BME280;38483;42.620;25.394;2023-03-08T04:35:36;96288.34;;;3.66;83.12
52591;BME280;38483;42.620;25.394;2023-03-08T04:38:04;96296.63;;;3.74;82.79
52591;BME280;38483;42.620;25.394;2023-03-08T04:40:31;96291.44;;;3.77;82.48
52591;BME280;38483;42.620;25.394;2023-03-08T04:43:02;96309.16;;;3.83;82.48
52591;BME280;38483;42.620;25.394;2023-03-08T04:45:36;96284.63;;;3.76;82.64
52591;BME280;38483;42.620;25.394;2023-03-08T04:48:09;96302.59;;;3.74;82.37
52591;BME280;38483;42.620;25.394;2023-03-08T04:50:36;96301.09;;;3.67;82.65
52591;BME280;38483;42.620;25.394;2023-03-08T04:53:07;96302.03;;;3.65;82.61
52591;BME280;38483;42.620;25.394;2023-03-08T04:55:37;96301.88;;;3.69;82.58
52591;BME280;38483;42.620;25.394;2023-03-08T04:58:05;96299.72;;;3.85;82.14
52591;BME280;38483;42.620;25.394;2023-03-08T05:00:32;96297.53;;;3.99;81.86
52591;BME280;38483;42.620;25.394;2023-03-08T05:03:00;96302.25;;;4.11;81.02
52591;BME280;38483;42.620;25.394;2023-03-08T05:05:27;96307.91;;;4.21;80.64
52591;BME280;38483;42.620;25.394;2023-03-08T05:07:56;96287.53;;;4.18;80.41
52591;BME280;38483;42.620;25.394;2023-03-08T05:10:25;96300.28;;;4.19;80.48
52591;BME280;38483;42.620;25.394;2023-03-08T05:12:52;96306.50;;;4.38;79.90
52591;BME280;38483;42.620;25.394;2023-03-08T05:15:20;96275.50;;;4.20;79.64
52591;BME280;38483;42.620;25.394;2023-03-08T05:17:51;96300.38;;;4.42;80.55
52591;BME280;38483;42.620;25.394;2023-03-08T05:20:19;96301.25;;;4.41;79.67
52591;BME280;38483;42.620;25.394;2023-03-08T05:22:49;96309.84;;;4.40;79.18
52591;BME280;38483;42.620;25.394;2023-03-08T05:25:32;96301.88;;;4.72;78.91
52591;BME280;38483;42.620;25.394;2023-03-08T05:28:00;96305.78;;;4.82;77.94
52591;BME280;38483;42.620;25.394;2023-03-08T05:30:31;96310.53;;;4.93;76.95
52591;BME280;38483;42.620;25.394;2023-03-08T05:32:58;96285.56;;;4.98;75.76
52591;BME280;38483;42.620;25.394;2023-03-08T05:35:25;96279.91;;;4.88;75.68
52591;BME280;38483;42.620;25.394;2023-03-08T05:37:54;96302.03;;;5.16;75.24
52591;BME280;38483;42.620;25.394;2023-03-08T05:40:21;96309.03;;;5.34;75.20
52591;BME280;38483;42.620;25.394;2023-03-08T05:42:50;96301.88;;;5.20;75.33
52591;BME280;38483;42.620;25.394;2023-03-08T05:45:17;96303.34;;;5.26;74.22
52591;BME280;38483;42.620;25.394;2023-03-08T05:47:44;96300.13;;;5.21;74.78
52591;BME280;38483;42.620;25.394;2023-03-08T05:50:12;96310.72;;;5.12;75.38
52591;BME280;38483;42.620;25.394;2023-03-08T05:52:40;96320.00;;;5.16;75.36
52591;BME280;38483;42.620;25.394;2023-03-08T05:55:12;96309.69;;;5.17;75.04
52591;BME280;38483;42.620;25.394;2023-03-08T05:57:41;96323.97;;;5.24;76.19
52591;BME280;38483;42.620;25.394;2023-03-08T06:00:09;96329.41;;;5.38;75.68
52591;BME280;38483;42.620;25.394;2023-03-08T06:02:42;96331.13;;;5.61;74.77
52591;BME280;38483;42.620;25.394;2023-03-08T06:05:10;96337.41;;;5.75;74.17
52591;BME280;38483;42.620;25.394;2023-03-08T06:07:38;96337.03;;;5.86;74.77
52591;BME280;38483;42.620;25.394;2023-03-08T06:10:09;96334.53;;;6.06;73.89
52591;BME280;38483;42.620;25.394;2023-03-08T06:12:38;96347.59;;;6.02;73.83
52591;BME280;38483;42.620;25.394;2023-03-08T06:15:09;96349.47;;;6.18;74.00
52591;BME280;38483;42.620;25.394;2023-03-08T06:17:40;96343.53;;;6.16;73.63
52591;BME280;38483;42.620;25.394;2023-03-08T06:20:08;96346.94;;;6.38;73.47
52591;BME280;38483;42.620;25.394;2023-03-08T06:22:39;96345.41;;;6.54;72.71
52591;BME280;38483;42.620;25.394;2023-03-08T06:25:07;96325.88;;;6.50;73.74
52591;BME280;38483;42.620;25.394;2023-03-08T06:27:35;96340.88;;;6.81;72.87
52591;BME280;38483;42.620;25.394;2023-03-08T06:30:09;96341.69;;;7.02;72.09
52591;BME280;38483;42.620;25.394;2023-03-08T06:32:37;96342.19;;;7.10;71.73
52591;BME280;38483;42.620;25.394;2023-03-08T06:35:06;96355.03;;;7.30;71.73
52591;BME280;38483;42.620;25.394;2023-03-08T06:37:39;96353.75;;;7.20;72.46
52591;BME280;38483;42.620;25.394;2023-03-08T06:40:07;96353.41;;;7.27;72.34
52591;BME280;38483;42.620;25.394;2023-03-08T06:42:35;96362.97;;;7.44;72.00
52591;BME280;38483;42.620;25.394;2023-03-08T06:45:10;96361.13;;;7.66;72.15
52591;BME280;38483;42.620;25.394;2023-03-08T06:47:38;96371.16;;;7.72;71.73
52591;BME280;38483;42.620;25.394;2023-03-08T06:50:07;96366.63;;;7.96;70.63
52591;BME280;38483;42.620;25.394;2023-03-08T06:52:36;96379.97;;;8.04;71.24
52591;BME280;38483;42.620;25.394;2023-03-08T06:55:06;96383.88;;;8.12;69.32
52591;BME280;38483;42.620;25.394;2023-03-08T06:57:40;96369.03;;;8.36;69.26
52591;BME280;38483;42.620;25.394;2023-03-08T07:00:11;96348.03;;;8.44;68.63
52591;BME280;38483;42.620;25.394;2023-03-08T07:02:44;96379.38;;;8.53;67.70
52591;BME280;38483;42.620;25.394;2023-03-08T07:05:11;96381.66;;;8.76;67.49
52591;BME280;38483;42.620;25.394;2023-03-08T07:07:38;96381.16;;;9.04;67.06
52591;BME280;38483;42.620;25.394;2023-03-08T07:10:06;96391.00;;;9.30;65.94
52591;BME280;38483;42.620;25.394;2023-03-08T07:12:33;96397.78;;;9.48;65.80
52591;BME280;38483;42.620;25.394;2023-03-08T07:15:02;96391.69;;;9.82;64.38
52591;BME280;38483;42.620;25.394;2023-03-08T07:17:30;96391.78;;;9.80;63.50
52591;BME280;38483;42.620;25.394;2023-03-08T07:19:58;96387.56;;;9.95;63.42
52591;BME280;38483;42.620;25.394;2023-03-08T07:22:29;96378.78;;;9.98;63.06
52591;BME280;38483;42.620;25.394;2023-03-08T07:24:56;96385.41;;;10.19;62.79
52591;BME280;38483;42.620;25.394;2023-03-08T07:27:24;96386.22;;;10.35;62.42
52591;BME280;38483;42.620;25.394;2023-03-08T07:29:51;96391.00;;;10.27;62.32
52591;BME280;38483;42.620;25.394;2023-03-08T07:32:21;96380.56;;;10.28;62.18
52591;BME280;38483;42.620;25.394;2023-03-08T07:34:49;96401.56;;;10.53;62.05
52591;BME280;38483;42.620;25.394;2023-03-08T07:37:19;96379.50;;;10.32;61.94
52591;BME280;38483;42.620;25.394;2023-03-08T07:39:47;96392.84;;;10.40;62.29
52591;BME280;38483;42.620;25.394;2023-03-08T07:42:15;96394.44;;;10.73;61.28
52591;BME280;38483;42.620;25.394;2023-03-08T07:44:45;96386.06;;;10.83;61.37
52591;BME280;38483;42.620;25.394;2023-03-08T07:47:12;96374.78;;;10.84;61.50
52591;BME280;38483;42.620;25.394;2023-03-08T07:49:40;96397.97;;;11.01;62.06
52591;BME280;38483;42.620;25.394;2023-03-08T07:52:07;96387.78;;;10.98;62.23
52591;BME280;38483;42.620;25.394;2023-03-08T07:54:37;96394.97;;;11.23;62.05
52591;BME280;38483;42.620;25.394;2023-03-08T07:57:05;96403.03;;;11.32;60.27
52591;BME280;38483;42.620;25.394;2023-03-08T07:59:33;96395.38;;;11.45;60.50
52591;BME280;38483;42.620;25.394;2023-03-08T08:02:00;96394.38;;;11.48;60.19
52591;BME280;38483;42.620;25.394;2023-03-08T08:04:27;96398.88;;;11.58;60.28
52591;BME280;38483;42.620;25.394;2023-03-08T08:06:55;96397.72;;;11.78;59.22
52591;BME280;38483;42.620;25.394;2023-03-08T08:09:22;96394.50;;;11.88;58.38
52591;BME280;38483;42.620;25.394;2023-03-08T08:11:50;96403.16;;;12.01;58.51
52591;BME280;38483;42.620;25.394;2023-03-08T08:14:17;96389.34;;;12.15;58.16
52591;BME280;38483;42.620;25.394;2023-03-08T08:16:47;96387.97;;;11.95;58.76
52591;BME280;38483;42.620;25.394;2023-03-08T08:19:15;96377.88;;;12.05;58.76
52591;BME280;38483;42.620;25.394;2023-03-08T08:21:42;96396.47;;;12.25;57.90
52591;BME280;38483;42.620;25.394;2023-03-08T08:24:10;96391.88;;;12.43;57.59
52591;BME280;38483;42.620;25.394;2023-03-08T08:26:38;96382.72;;;12.64;56.89
52591;BME280;38483;42.620;25.394;2023-03-08T08:29:07;96380.47;;;12.72;56.35
52591;BME280;38483;42.620;25.394;2023-03-08T08:31:46;96383.50;;;13.05;56.14
52591;BME280;38483;42.620;25.394;2023-03-08T08:34:15;96386.94;;;13.06;55.31
52591;BME280;38483;42.620;25.394;2023-03-08T08:36:43;96369.09;;;13.00;54.89
52591;BME280;38483;42.620;25.394;2023-03-08T08:39:10;96381.34;;;13.25;53.84
52591;BME280;38483;42.620;25.394;2023-03-08T08:41:37;96384.06;;;13.48;53.32
52591;BME280;38483;42.620;25.394;2023-03-08T08:44:06;96378.34;;;13.43;53.10
52591;BME280;38483;42.620;25.394;2023-03-08T08:46:36;96372.72;;;13.37;51.64
52591;BME280;38483;42.620;25.394;2023-03-08T08:49:04;96388.13;;;13.52;51.45
52591;BME280;38483;42.620;25.394;2023-03-08T08:51:31;96385.81;;;13.60;52.17
52591;BME280;38483;42.620;25.394;2023-03-08T08:53:58;96380.72;;;13.59;51.10
52591;BME280;38483;42.620;25.394;2023-03-08T08:56:27;96385.19;;;13.69;50.31
52591;BME280;38483;42.620;25.394;2023-03-08T08:59:01;96378.72;;;14.00;50.10
52591;BME280;38483;42.620;25.394;2023-03-08T09:01:31;96371.03;;;13.86;48.34
52591;BME280;38483;42.620;25.394;2023-03-08T09:03:59;96375.81;;;13.92;47.92
52591;BME280;38483;42.620;25.394;2023-03-08T09:06:27;96385.81;;;13.85;49.60
52591;BME280;38483;42.620;25.394;2023-03-08T09:08:58;96382.00;;;14.15;49.54
52591;BME280;38483;42.620;25.394;2023-03-08T09:11:26;96374.69;;;14.32;48.82
52591;BME280;38483;42.620;25.394;2023-03-08T09:13:53;96361.91;;;14.29;49.01
52591;BME280;38483;42.620;25.394;2023-03-08T09:16:24;96379.50;;;14.38;48.41
52591;BME280;38483;42.620;25.394;2023-03-08T09:18:52;96374.59;;;14.57;48.83
52591;BME280;38483;42.620;25.394;2023-03-08T09:21:20;96376.13;;;14.73;47.94
52591;BME280;38483;42.620;25.394;2023-03-08T09:23:47;96362.22;;;14.61;46.47
52591;BME280;38483;42.620;25.394;2023-03-08T09:26:14;96361.13;;;14.63;46.44
52591;BME280;38483;42.620;25.394;2023-03-08T09:28:41;96376.84;;;14.75;47.28
52591;BME280;38483;42.620;25.394;2023-03-08T09:31:12;96367.06;;;14.65;46.52
52591;BME280;38483;42.620;25.394;2023-03-08T09:33:43;96354.59;;;14.82;46.36
52591;BME280;38483;42.620;25.394;2023-03-08T09:36:11;96356.31;;;14.94;46.56
52591;BME280;38483;42.620;25.394;2023-03-08T09:38:38;96352.78;;;15.17;45.89
52591;BME280;38483;42.620;25.394;2023-03-08T09:46:26;96357.84;;;15.31;45.44
52591;BME280;38483;42.620;25.394;2023-03-08T09:48:55;96356.88;;;15.32;45.01
52591;BME280;38483;42.620;25.394;2023-03-08T09:51:33;96350.66;;;15.45;44.41
52591;BME280;38483;42.620;25.394;2023-03-08T09:54:06;96342.94;;;15.55;44.49
52591;BME280;38483;42.620;25.394;2023-03-08T09:56:47;96339.16;;;15.59;44.27
52591;BME280;38483;42.620;25.394;2023-03-08T09:59:29;96340.59;;;15.74;44.20
52591;BME280;38483;42.620;25.394;2023-03-08T10:02:10;96335.22;;;15.65;43.80
52591;BME280;38483;42.620;25.394;2023-03-08T10:08:06;96329.16;;;15.97;42.88
52591;BME280;38483;42.620;25.394;2023-03-08T10:10:58;96326.06;;;16.03;42.65
52591;BME280;38483;42.620;25.394;2023-03-08T10:13:50;96330.34;;;16.15;42.78
52591;BME280;38483;42.620;25.394;2023-03-08T10:16:26;96331.78;;;16.08;42.95
52591;BME280;38483;42.620;25.394;2023-03-08T10:21:32;96323.72;;;16.00;42.34
52591;BME280;38483;42.620;25.394;2023-03-08T10:26:33;96319.09;;;16.58;39.82
52591;BME280;38483;42.620;25.394;2023-03-08T10:29:00;96328.56;;;16.70;37.70
52591;BME280;38483;42.620;25.394;2023-03-08T10:31:30;96312.97;;;16.79;37.22
52591;BME280;38483;42.620;25.394;2023-03-08T10:34:13;96328.28;;;17.04;36.92
52591;BME280;38483;42.620;25.394;2023-03-08T10:36:51;96311.25;;;17.10;36.85
52591;BME280;38483;42.620;25.394;2023-03-08T10:39:20;96303.22;;;17.02;37.05
52591;BME280;38483;42.620;25.394;2023-03-08T10:41:58;96313.41;;;17.05;37.68
52591;BME280;38483;42.620;25.394;2023-03-08T10:44:42;96295.56;;;17.10;37.55
52591;BME280;38483;42.620;25.394;2023-03-08T10:49:48;96288.28;;;16.93;38.19
52591;BME280;38483;42.620;25.394;2023-03-08T10:52:25;96299.69;;;17.13;38.10
52591;BME280;38483;42.620;25.394;2023-03-08T10:55:19;96299.22;;;17.19;37.94
52591;BME280;38483;42.620;25.394;2023-03-08T10:57:54;96295.97;;;17.36;37.94
52591;BME280;38483;42.620;25.394;2023-03-08T11:00:34;96295.47;;;17.42;36.58
52591;BME280;38483;42.620;25.394;2023-03-08T11:03:09;96298.91;;;17.42;34.90
52591;BME280;38483;42.620;25.394;2023-03-08T11:05:37;96293.81;;;17.41;33.49
52591;BME280;38483;42.620;25.394;2023-03-08T11:08:16;96277.59;;;17.47;33.01
52591;BME280;38483;42.620;25.394;2023-03-08T11:10:43;96278.00;;;17.22;33.92
52591;BME280;38483;42.620;25.394;2023-03-08T11:13:23;96278.88;;;17.52;33.40
52591;BME280;38483;42.620;25.394;2023-03-08T11:16:02;96274.25;;;17.65;33.19
52591;BME280;38483;42.620;25.394;2023-03-08T11:18:41;96276.19;;;18.03;32.27
52591;BME280;38483;42.620;25.394;2023-03-08T11:21:35;96259.75;;;18.01;33.01
52591;BME280;38483;42.620;25.394;2023-03-08T11:27:34;96264.34;;;18.18;32.54
52591;BME280;38483;42.620;25.394;2023-03-08T11:30:27;96264.09;;;18.40;31.58
52591;BME280;38483;42.620;25.394;2023-03-08T11:36:15;96257.19;;;18.39;33.07
52591;BME280;38483;42.620;25.394;2023-03-08T11:38:53;96249.44;;;18.19;34.63
52591;BME280;38483;42.620;25.394;2023-03-08T11:41:43;96251.38;;;18.07;34.71
52591;BME280;38483;42.620;25.394;2023-03-08T12:01:01;96222.03;;;17.64;36.16
52591;BME280;38483;42.620;25.394;2023-03-08T12:03:37;96218.41;;;17.55;36.74
52591;BME280;38483;42.620;25.394;2023-03-08T12:06:28;96198.03;;;17.68;34.86
52591;BME280;38483;42.620;25.394;2023-03-08T12:12:20;96214.28;;;18.31;32.35
52591;BME280;38483;42.620;25.394;2023-03-08T12:17:23;96213.72;;;18.27;30.70
52591;BME280;38483;42.620;25.394;2023-03-08T12:19:52;96205.84;;;18.18;30.16
52591;BME280;38483;42.620;25.394;2023-03-08T12:22:46;96209.59;;;18.25;29.95
52591;BME280;38483;42.620;25.394;2023-03-08T12:25:27;96214.41;;;18.39;29.36
52591;BME280;38483;42.620;25.394;2023-03-08T12:33:24;96204.78;;;18.49;30.26
52591;BME280;38483;42.620;25.394;2023-03-08T12:35:56;96208.94;;;18.51;29.88
52591;BME280;38483;42.620;25.394;2023-03-08T12:38:36;96197.59;;;18.41;29.72
52591;BME280;38483;42.620;25.394;2023-03-08T12:41:20;96206.72;;;18.56;30.05
52591;BME280;38483;42.620;25.394;2023-03-08T12:44:00;96191.28;;;18.44;29.68
52591;BME280;38483;42.620;25.394;2023-03-08T12:46:32;96210.44;;;18.73;29.80
52591;BME280;38483;42.620;25.394;2023-03-08T12:49:39;96195.66;;;18.53;30.23
52591;BME280;38483;42.620;25.394;2023-03-08T12:55:20;96207.69;;;18.46;29.14
52591;BME280;38483;42.620;25.394;2023-03-08T12:57:53;96201.47;;;18.56;29.45
52591;BME280;38483;42.620;25.394;2023-03-08T13:00:55;96203.50;;;18.24;30.10
52591;BME280;38483;42.620;25.394;2023-03-08T13:03:35;96206.41;;;18.21;30.16
52591;BME280;38483;42.620;25.394;2023-03-08T13:08:52;96197.16;;;18.27;30.51
52591;BME280;38483;42.620;25.394;2023-03-08T13:11:23;96206.84;;;18.36;30.19
52591;BME280;38483;42.620;25.394;2023-03-08T13:13:57;96201.97;;;18.22;29.90
52591;BME280;38483;42.620;25.394;2023-03-08T13:16:37;96198.41;;;18.13;29.63
52591;BME280;38483;42.620;25.394;2023-03-08T13:22:00;96188.88;;;18.03;29.98
52591;BME280;38483;42.620;25.394;2023-03-08T13:24:47;96191.66;;;18.11;30.19
52591;BME280;38483;42.620;25.394;2023-03-08T13:30:23;96196.47;;;18.15;30.83
52591;BME280;38483;42.620;25.394;2023-03-08T13:32:51;96197.03;;;18.19;30.26
52591;BME280;38483;42.620;25.394;2023-03-08T13:35:20;96193.16;;;18.32;30.01
52591;BME280;38483;42.620;25.394;2023-03-08T13:37:55;96197.84;;;18.38;30.06
52591;BME280;38483;42.620;25.394;2023-03-08T13:40:23;96196.63;;;18.33;30.18
52591;BME280;38483;42.620;25.394;2023-03-08T13:45:25;96196.22;;;18.28;30.53
52591;BME280;38483;42.620;25.394;2023-03-08T13:47:56;96185.97;;;18.06;30.41
52591;BME280;38483;42.620;25.394;2023-03-08T13:50:33;96195.91;;;18.12;30.23
52591;BME280;38483;42.620;25.394;2023-03-08T13:53:03;96195.25;;;18.29;30.59
52591;BME280;38483;42.620;25.394;2023-03-08T13:55:38;96180.19;;;18.12;30.56
52591;BME280;38483;42.620;25.394;2023-03-08T13:58:05;96201.47;;;18.28;31.37
52591;BME280;38483;42.620;25.394;2023-03-08T14:00:34;96195.94;;;18.31;31.13
52591;BME280;38483;42.620;25.394;2023-03-08T14:03:03;96178.81;;;18.27;31.54
52591;BME280;38483;42.620;25.394;2023-03-08T14:05:40;96178.56;;;18.30;31.58
52591;BME280;38483;42.620;25.394;2023-03-08T14:08:20;96177.97;;;18.26;31.42
52591;BME280;38483;42.620;25.394;2023-03-08T14:10:52;96197.59;;;18.32;31.53
52591;BME280;38483;42.620;25.394;2023-03-08T14:13:28;96185.44;;;18.31;31.66
52591;BME280;38483;42.620;25.394;2023-03-08T14:16:02;96186.25;;;18.22;31.95
52591;BME280;38483;42.620;25.394;2023-03-08T14:23:58;96177.97;;;17.98;32.94
52591;BME280;38483;42.620;25.394;2023-03-08T14:26:38;96180.19;;;17.93;32.88
52591;BME280;38483;42.620;25.394;2023-03-08T14:29:29;96179.59;;;17.89;33.11
52591;BME280;38483;42.620;25.394;2023-03-08T14:34:46;96171.88;;;17.87;32.48
52591;BME280;38483;42.620;25.394;2023-03-08T14:39:54;96176.97;;;17.79;33.08
52591;BME280;38483;42.620;25.394;2023-03-08T14:42:32;96174.50;;;17.87;33.27
52591;BME280;38483;42.620;25.394;2023-03-08T14:45:14;96184.72;;;17.91;33.74
52591;BME280;38483;42.620;25.394;2023-03-08T14:47:52;96173.03;;;17.95;33.44
52591;BME280;38483;42.620;25.394;2023-03-08T14:50:50;96180.03;;;18.04;34.09
52591;BME280;38483;42.620;25.394;2023-03-08T14:53:25;96174.09;;;17.92;34.74
52591;BME280;38483;42.620;25.394;2023-03-08T14:55:52;96176.28;;;17.77;34.73
52591;BME280;38483;42.620;25.394;2023-03-08T14:58:23;96178.91;;;17.77;34.61
52591;BME280;38483;42.620;25.394;2023-03-08T15:00:54;96176.19;;;17.88;34.82
52591;BME280;38483;42.620;25.394;2023-03-08T15:03:22;96174.09;;;17.82;34.96
52591;BME280;38483;42.620;25.394;2023-03-08T15:05:52;96184.28;;;17.85;34.91
52591;BME280;38483;42.620;25.394;2023-03-08T15:08:21;96184.28;;;17.85;34.91
52591;BME280;38483;42.620;25.394;2023-03-08T15:10:48;96176.59;;;17.84;35.26